Time;durP1;ratioP1;P1;durP2;ratioP2;P2;SDS_P1;SDS_P2;PMS_P1;PMS_P2;Temp;Humidity;BMP_temperature;BMP_pressure;BME280_temperature;BME280_humidity;BME280_pressure;Samples;Min_cycle;Max_cycle;Signal;HPM_P1;HPM_P2
2021/12/30 00:01:33;;;;;;;95.70;51.25;;;;;;;;;;4702599;30;20050;-80
2021/12/30 00:04:20;;;;;;;99.00;52.50;;;;;;;;;;4701894;30;20053;-81
2021/12/30 00:07:08;;;;;;;104.60;51.42;;;;;;;;;;4702922;30;20053;-80
2021/12/30 00:09:54;;;;;;;105.93;53.08;;;;;;;;;;4701520;30;20053;-79
2021/12/30 00:12:40;;;;;;;106.13;55.28;;;;;;;;;;4707777;30;20054;-80
2021/12/30 00:15:26;;;;;;;110.75;55.30;;;;;;;;;;4707060;30;20061;-80
2021/12/30 00:18:11;;;;;;;111.72;58.75;;;;;;;;;;4701826;30;20057;-80
2021/12/30 00:20:57;;;;;;;128.65;67.70;;;;;;;;;;4702348;30;20397;-82
2021/12/30 00:23:43;;;;;;;195.02;95.00;;;;;;;;;;4702427;30;20053;-81
2021/12/30 00:26:29;;;;;;;172.93;80.43;;;;;;;;;;4702301;30;20498;-80
2021/12/30 00:29:14;;;;;;;223.05;94.95;;;;;;;;;;4701375;30;20053;-81
2021/12/30 00:32:00;;;;;;;199.98;88.40;;;;;;;;;;4700059;30;20057;-80
2021/12/30 00:34:45;;;;;;;190.23;77.60;;;;;;;;;;4700297;30;20061;-80
2021/12/30 00:37:31;;;;;;;108.53;59.83;;;;;;;;;;4700329;30;20062;-81
2021/12/30 00:40:16;;;;;;;105.45;57.47;;;;;;;;;;4700444;30;20057;-80
2021/12/30 00:43:03;;;;;;;126.70;68.07;;;;;;;;;;4708779;30;20061;-79
2021/12/30 00:45:49;;;;;;;126.97;66.40;;;;;;;;;;4703396;30;20050;-81
2021/12/30 00:48:34;;;;;;;132.55;72.53;;;;;;;;;;4701617;30;20042;-80
2021/12/30 00:51:20;;;;;;;139.80;72.75;;;;;;;;;;4702262;30;20045;-81
2021/12/30 00:54:05;;;;;;;131.13;73.85;;;;;;;;;;4688444;30;20057;-79
2021/12/30 00:56:51;;;;;;;109.00;61.05;;;;;;;;;;4701857;30;20050;-80
2021/12/30 00:59:36;;;;;;;117.07;60.17;;;;;;;;;;4701665;30;20401;-80
2021/12/30 01:02:22;;;;;;;133.60;66.70;;;;;;;;;;4701965;30;20413;-80
2021/12/30 01:05:09;;;;;;;148.60;75.10;;;;;;;;;;4701437;30;20049;-80
2021/12/30 01:07:56;;;;;;;159.95;79.47;;;;;;;;;;4701453;30;20049;-79
2021/12/30 01:10:43;;;;;;;163.88;78.20;;;;;;;;;;4701389;30;20050;-79
2021/12/30 01:13:30;;;;;;;152.32;77.45;;;;;;;;;;4694446;30;20058;-79
2021/12/30 01:16:19;;;;;;;138.32;69.15;;;;;;;;;;4701800;30;20405;-80
2021/12/30 01:22:17;;;;;;;110.53;58.33;;;;;;;;;;4700981;30;20054;-80
2021/12/30 01:25:07;;;;;;;164.32;73.47;;;;;;;;;;4700547;30;20053;-80
2021/12/30 01:27:52;;;;;;;151.50;70.05;;;;;;;;;;4706649;30;20084;-80
2021/12/30 01:30:38;;;;;;;125.38;59.05;;;;;;;;;;4699181;30;20053;-78
2021/12/30 01:33:24;;;;;;;122.55;59.58;;;;;;;;;;4699065;30;20049;-80
2021/12/30 01:36:11;;;;;;;102.32;48.28;;;;;;;;;;4698922;30;20492;-80
2021/12/30 01:38:59;;;;;;;65.00;36.70;;;;;;;;;;4698950;30;20053;-80
2021/12/30 01:41:44;;;;;;;72.95;37.92;;;;;;;;;;4698657;30;20062;-81
2021/12/30 01:44:32;;;;;;;94.05;61.08;;;;;;;;;;4698971;30;20050;-81
2021/12/30 01:47:17;;;;;;;83.13;46.50;;;;;;;;;;4699096;30;20054;-81
2021/12/30 01:50:04;;;;;;;50.05;30.05;;;;;;;;;;4698386;30;20054;-82
2021/12/30 01:52:50;;;;;;;47.72;28.35;;;;;;;;;;4701108;30;20053;-80
2021/12/30 01:55:37;;;;;;;89.15;50.00;;;;;;;;;;4700988;30;20076;-81
2021/12/30 01:58:23;;;;;;;69.75;40.78;;;;;;;;;;4701013;30;20049;-81
2021/12/30 02:01:10;;;;;;;45.97;27.13;;;;;;;;;;4693449;30;20053;-80
2021/12/30 02:03:56;;;;;;;44.83;27.70;;;;;;;;;;4706852;30;20509;-79
2021/12/30 02:06:42;;;;;;;47.20;27.70;;;;;;;;;;4719383;30;20041;-80
2021/12/30 02:09:29;;;;;;;41.70;26.02;;;;;;;;;;4707362;30;20049;-81
2021/12/30 02:12:14;;;;;;;37.70;23.98;;;;;;;;;;4700748;30;20477;-81
2021/12/30 02:15:00;;;;;;;36.22;23.15;;;;;;;;;;4701065;30;20477;-80
2021/12/30 02:17:51;;;;;;;37.25;22.27;;;;;;;;;;4700021;30;20049;-80
2021/12/30 02:20:54;;;;;;;29.00;18.52;;;;;;;;;;4698627;30;20049;-82
2021/12/30 02:23:39;;;;;;;34.80;18.73;;;;;;;;;;4698330;30;20054;-83
2021/12/30 02:26:25;;;;;;;28.20;17.00;;;;;;;;;;4685482;30;20053;-83
2021/12/30 02:29:11;;;;;;;22.45;13.80;;;;;;;;;;4697587;30;20053;-82
2021/12/30 02:31:57;;;;;;;26.15;13.80;;;;;;;;;;4698812;30;20057;-83
2021/12/30 02:34:42;;;;;;;20.33;13.07;;;;;;;;;;4704058;30;20075;-81
2021/12/30 02:37:28;;;;;;;20.52;12.13;;;;;;;;;;4704107;30;20050;-82
2021/12/30 02:40:14;;;;;;;22.33;12.73;;;;;;;;;;4704214;30;20053;-82
2021/12/30 02:43:00;;;;;;;18.42;12.05;;;;;;;;;;4703963;30;20498;-81
2021/12/30 02:45:46;;;;;;;16.33;10.35;;;;;;;;;;4703817;30;20053;-82
2021/12/30 02:48:35;;;;;;;15.60;10.07;;;;;;;;;;4703941;30;20548;-83
2021/12/30 02:51:21;;;;;;;13.20;9.55;;;;;;;;;;4703959;30;20477;-82
2021/12/30 02:54:06;;;;;;;18.85;11.30;;;;;;;;;;4703963;30;20054;-82
2021/12/30 02:56:52;;;;;;;19.00;11.85;;;;;;;;;;4704037;30;20062;-83
2021/12/30 02:59:37;;;;;;;22.48;13.85;;;;;;;;;;4703650;30;20397;-83
2021/12/30 03:02:23;;;;;;;23.63;13.82;;;;;;;;;;4703676;30;20061;-82
2021/12/30 03:05:13;;;;;;;21.38;13.93;;;;;;;;;;4714570;30;20053;-80
2021/12/30 03:07:58;;;;;;;23.40;14.23;;;;;;;;;;4717809;30;20413;-82
2021/12/30 03:10:44;;;;;;;24.08;15.07;;;;;;;;;;4703667;30;20053;-82
2021/12/30 03:13:31;;;;;;;25.02;14.30;;;;;;;;;;4703237;30;20046;-81
2021/12/30 03:16:24;;;;;;;22.67;14.52;;;;;;;;;;4703651;30;20412;-81
2021/12/30 03:19:09;;;;;;;24.30;14.75;;;;;;;;;;4709035;30;20041;-81
2021/12/30 03:21:56;;;;;;;26.23;15.60;;;;;;;;;;4703328;30;20057;-82
2021/12/30 03:24:41;;;;;;;23.23;13.90;;;;;;;;;;4702634;30;20049;-81
2021/12/30 03:27:26;;;;;;;23.60;15.43;;;;;;;;;;4703222;30;20053;-81
2021/12/30 03:30:15;;;;;;;20.65;14.25;;;;;;;;;;4703340;30;20057;-81
2021/12/30 03:33:01;;;;;;;22.23;13.45;;;;;;;;;;4703085;30;20041;-81
2021/12/30 03:35:47;;;;;;;17.92;11.93;;;;;;;;;;4703044;30;20057;-80
2021/12/30 03:38:39;;;;;;;19.10;11.55;;;;;;;;;;4703239;30;20053;-81
2021/12/30 03:41:28;;;;;;;16.08;10.55;;;;;;;;;;4701893;30;20046;-81
2021/12/30 03:44:14;;;;;;;15.00;10.43;;;;;;;;;;4702997;30;20057;-81
2021/12/30 03:47:01;;;;;;;10.57;7.20;;;;;;;;;;4702945;30;20065;-82
2021/12/30 03:49:46;;;;;;;14.60;8.75;;;;;;;;;;4704041;30;20054;-81
2021/12/30 03:52:32;;;;;;;17.73;9.50;;;;;;;;;;4702777;30;20045;-81
2021/12/30 03:55:20;;;;;;;15.00;8.88;;;;;;;;;;4702608;30;20062;-80
2021/12/30 03:58:06;;;;;;;15.50;9.25;;;;;;;;;;4703168;30;20508;-80
2021/12/30 04:00:51;;;;;;;13.98;9.07;;;;;;;;;;4703104;30;20049;-82
2021/12/30 04:03:37;;;;;;;14.57;9.10;;;;;;;;;;4702482;30;20057;-82
2021/12/30 04:06:23;;;;;;;14.40;9.88;;;;;;;;;;4701919;30;20057;-82
2021/12/30 04:09:08;;;;;;;14.02;9.30;;;;;;;;;;4700425;30;20528;-80
2021/12/30 04:11:54;;;;;;;15.30;9.75;;;;;;;;;;4700367;30;20405;-81
2021/12/30 04:14:41;;;;;;;15.25;10.05;;;;;;;;;;4700674;30;20533;-82
2021/12/30 04:17:27;;;;;;;13.63;9.55;;;;;;;;;;4700564;30;20057;-81
2021/12/30 04:20:15;;;;;;;15.63;9.77;;;;;;;;;;4700984;30;20057;-82
2021/12/30 04:23:01;;;;;;;13.63;9.80;;;;;;;;;;4701025;30;20057;-82
2021/12/30 04:25:47;;;;;;;17.13;10.25;;;;;;;;;;4701190;30;20061;-82
2021/12/30 04:28:33;;;;;;;17.50;10.55;;;;;;;;;;4702649;30;20049;-81
2021/12/30 04:31:18;;;;;;;16.45;10.73;;;;;;;;;;4702229;30;20054;-82
2021/12/30 04:34:05;;;;;;;15.30;10.27;;;;;;;;;;4701693;30;20049;-82
2021/12/30 04:36:53;;;;;;;15.45;9.93;;;;;;;;;;4701848;30;20062;-83
2021/12/30 04:39:39;;;;;;;14.63;10.18;;;;;;;;;;4707349;30;20057;-82
2021/12/30 04:42:24;;;;;;;16.75;9.90;;;;;;;;;;4702030;30;20049;-83
2021/12/30 04:45:12;;;;;;;18.02;10.43;;;;;;;;;;4701722;30;20049;-83
2021/12/30 04:47:57;;;;;;;14.10;9.18;;;;;;;;;;4702017;30;20053;-83
2021/12/30 04:50:46;;;;;;;14.00;9.30;;;;;;;;;;4702112;30;20062;-83
2021/12/30 04:53:31;;;;;;;13.32;8.70;;;;;;;;;;4701600;30;20054;-82
2021/12/30 04:56:18;;;;;;;14.18;9.32;;;;;;;;;;4688691;30;20401;-83
2021/12/30 04:59:04;;;;;;;11.52;8.48;;;;;;;;;;4701722;30;20053;-83
2021/12/30 05:01:49;;;;;;;16.42;8.95;;;;;;;;;;4701503;30;20053;-83
2021/12/30 05:04:35;;;;;;;17.02;9.75;;;;;;;;;;4701816;30;20400;-82
2021/12/30 05:07:20;;;;;;;19.15;11.68;;;;;;;;;;4701941;30;20053;-82
2021/12/30 05:10:06;;;;;;;18.33;12.32;;;;;;;;;;4702345;30;20057;-84
2021/12/30 05:12:51;;;;;;;20.42;12.60;;;;;;;;;;4703153;30;20053;-82
2021/12/30 05:15:38;;;;;;;19.15;12.77;;;;;;;;;;4703497;30;20057;-82
2021/12/30 05:18:30;;;;;;;23.50;16.67;;;;;;;;;;4710718;30;20061;-80
2021/12/30 05:21:15;;;;;;;21.55;13.60;;;;;;;;;;4713806;30;20057;-82
2021/12/30 05:24:01;;;;;;;22.08;15.25;;;;;;;;;;4708781;30;20405;-83
2021/12/30 05:26:46;;;;;;;23.23;14.68;;;;;;;;;;4703646;30;20061;-82
2021/12/30 05:29:32;;;;;;;21.55;14.23;;;;;;;;;;4701410;30;20050;-82
2021/12/30 05:32:17;;;;;;;21.50;14.40;;;;;;;;;;4702007;30;20373;-82
2021/12/30 05:35:06;;;;;;;22.10;15.35;;;;;;;;;;4702222;30;20053;-82
2021/12/30 05:37:52;;;;;;;22.90;14.40;;;;;;;;;;4702599;30;20057;-82
2021/12/30 05:40:38;;;;;;;28.90;16.77;;;;;;;;;;4701495;30;20045;-83
2021/12/30 05:43:23;;;;;;;26.55;17.27;;;;;;;;;;4700382;30;20057;-83
2021/12/30 05:46:08;;;;;;;29.35;17.70;;;;;;;;;;4700423;30;20050;-80
2021/12/30 05:48:54;;;;;;;28.77;18.10;;;;;;;;;;4699601;30;20054;-80
2021/12/30 05:51:41;;;;;;;27.25;18.25;;;;;;;;;;4700742;30;20061;-81
2021/12/30 05:54:26;;;;;;;26.33;17.30;;;;;;;;;;4700742;30;20061;-83
2021/12/30 05:57:12;;;;;;;29.65;17.10;;;;;;;;;;4700815;30;20053;-81
2021/12/30 05:59:57;;;;;;;29.63;16.08;;;;;;;;;;4700644;30;20057;-83
2021/12/30 06:02:44;;;;;;;31.33;18.25;;;;;;;;;;4700048;30;20061;-81
2021/12/30 06:05:30;;;;;;;37.40;22.85;;;;;;;;;;4705107;30;20049;-82
2021/12/30 06:08:15;;;;;;;33.15;19.05;;;;;;;;;;4705420;30;20520;-81
2021/12/30 06:11:01;;;;;;;33.33;20.00;;;;;;;;;;4701012;30;20481;-82
2021/12/30 06:13:46;;;;;;;33.85;21.13;;;;;;;;;;4699712;30;20041;-81
2021/12/30 06:16:33;;;;;;;29.38;19.15;;;;;;;;;;4699070;30;20493;-81
2021/12/30 06:19:19;;;;;;;45.17;27.75;;;;;;;;;;4700832;30;20049;-81
2021/12/30 06:22:06;;;;;;;34.35;20.20;;;;;;;;;;4700773;30;20061;-82
2021/12/30 06:24:52;;;;;;;30.70;19.08;;;;;;;;;;4700942;30;20054;-82
2021/12/30 06:27:37;;;;;;;34.45;20.33;;;;;;;;;;4700663;30;20054;-82
2021/12/30 06:30:23;;;;;;;38.78;21.58;;;;;;;;;;4700322;30;20061;-80
2021/12/30 06:33:08;;;;;;;65.00;30.95;;;;;;;;;;4700144;30;20054;-82
2021/12/30 06:35:54;;;;;;;54.35;27.45;;;;;;;;;;4700327;30;20058;-81
2021/12/30 06:38:40;;;;;;;66.85;33.60;;;;;;;;;;4693492;30;20049;-81
2021/12/30 06:41:25;;;;;;;36.90;21.50;;;;;;;;;;4700938;30;20054;-80
2021/12/30 06:44:10;;;;;;;32.60;20.45;;;;;;;;;;4700348;30;20065;-82
2021/12/30 06:46:59;;;;;;;49.15;27.02;;;;;;;;;;4700550;30;20510;-80
2021/12/30 06:49:44;;;;;;;28.05;15.25;;;;;;;;;;4699977;30;20053;-81
2021/12/30 06:52:30;;;;;;;32.88;18.98;;;;;;;;;;4704614;30;20050;-80
2021/12/30 06:55:16;;;;;;;35.72;21.30;;;;;;;;;;4700198;30;20049;-80
2021/12/30 06:58:03;;;;;;;18.65;10.38;;;;;;;;;;4687328;30;20501;-81
2021/12/30 07:00:49;;;;;;;39.33;21.95;;;;;;;;;;4700351;30;20050;-81
2021/12/30 07:03:35;;;;;;;42.25;23.35;;;;;;;;;;4700003;30;20053;-80
2021/12/30 07:06:20;;;;;;;32.97;18.50;;;;;;;;;;4700460;30;20042;-80
2021/12/30 07:09:06;;;;;;;34.22;18.38;;;;;;;;;;4700286;30;20053;-80
2021/12/30 07:11:52;;;;;;;37.63;21.50;;;;;;;;;;4700058;30;20503;-81
2021/12/30 07:14:37;;;;;;;27.92;17.85;;;;;;;;;;4700035;30;20053;-81
2021/12/30 07:17:26;;;;;;;19.58;10.63;;;;;;;;;;4700377;30;20061;-80
2021/12/30 07:20:13;;;;;;;40.25;19.27;;;;;;;;;;4703563;30;20050;-80
2021/12/30 07:22:58;;;;;;;31.77;17.63;;;;;;;;;;4703223;30;20499;-80
2021/12/30 07:25:43;;;;;;;26.17;15.57;;;;;;;;;;4703262;30;20050;-81
2021/12/30 07:28:29;;;;;;;23.40;14.82;;;;;;;;;;4718431;30;20160;-79
2021/12/30 07:31:14;;;;;;;26.15;16.00;;;;;;;;;;4711295;30;20049;-81
2021/12/30 07:34:00;;;;;;;26.33;16.65;;;;;;;;;;4702714;30;20058;-81
2021/12/30 07:36:46;;;;;;;26.35;17.17;;;;;;;;;;4703159;30;20053;-81
2021/12/30 07:39:31;;;;;;;47.13;23.83;;;;;;;;;;4702399;30;20046;-81
2021/12/30 07:42:17;;;;;;;40.63;24.50;;;;;;;;;;4702447;30;20061;-81
2021/12/30 07:45:04;;;;;;;179.38;107.22;;;;;;;;;;4702660;30;20393;-82
2021/12/30 07:47:53;;;;;;;569.67;359.17;;;;;;;;;;4702074;30;20497;-81
2021/12/30 07:50:40;;;;;;;51.83;27.52;;;;;;;;;;4708591;30;20049;-80
2021/12/30 07:53:25;;;;;;;995.15;701.75;;;;;;;;;;4699996;24;20429;-80
2021/12/30 07:56:11;;;;;;;398.83;266.15;;;;;;;;;;4685639;30;20050;-80
2021/12/30 07:58:58;;;;;;;82.35;46.28;;;;;;;;;;4685408;30;20058;-78
2021/12/30 08:06:29;;;;;;;35.45;21.00;;;;;;;;;;4685166;30;20498;-79
2021/12/30 08:09:20;;;;;;;33.10;18.58;;;;;;;;;;4659834;30;20057;-78
2021/12/30 08:12:06;;;;;;;38.45;21.40;;;;;;;;;;4672253;30;20054;-79
2021/12/30 08:14:53;;;;;;;37.03;20.88;;;;;;;;;;4684371;30;20058;-78
2021/12/30 08:17:42;;;;;;;39.83;22.35;;;;;;;;;;4677247;30;20057;-78
2021/12/30 08:25:53;;;;;;;45.65;26.50;;;;;;;;;;4683996;30;20050;-79
2021/12/30 08:28:40;;;;;;;45.95;25.25;;;;;;;;;;4620335;30;20490;-79
2021/12/30 08:31:28;;;;;;;33.35;20.40;;;;;;;;;;4690373;30;20058;-80
2021/12/30 08:34:13;;;;;;;33.55;20.52;;;;;;;;;;4695357;30;20050;-79
2021/12/30 08:36:59;;;;;;;31.65;19.50;;;;;;;;;;4684756;30;20050;-78
2021/12/30 08:39:44;;;;;;;32.00;19.38;;;;;;;;;;4684029;30;20050;-79
2021/12/30 08:42:50;;;;;;;26.30;17.08;;;;;;;;;;4677226;30;20435;-80
2021/12/30 08:46:07;;;;;;;35.97;20.20;;;;;;;;;;4676841;30;20477;-80
2021/12/30 08:49:02;;;;;;;31.42;17.70;;;;;;;;;;4744607;24;20096;-82
2021/12/30 08:51:47;;;;;;;27.83;17.27;;;;;;;;;;4712581;30;20052;-84
2021/12/30 08:54:35;;;;;;;29.20;17.80;;;;;;;;;;4719295;30;20045;-81
2021/12/30 08:57:21;;;;;;;40.08;22.73;;;;;;;;;;4712314;30;20386;-81
2021/12/30 09:00:11;;;;;;;63.88;32.30;;;;;;;;;;4708039;30;20061;-81
2021/12/30 09:03:00;;;;;;;45.75;24.98;;;;;;;;;;4712665;30;20052;-83
2021/12/30 09:05:49;;;;;;;43.20;24.95;;;;;;;;;;4725360;30;20462;-83
2021/12/30 09:08:34;;;;;;;27.50;17.45;;;;;;;;;;4719345;30;20053;-81
2021/12/30 09:11:23;;;;;;;24.23;13.48;;;;;;;;;;4724837;30;20048;-81
2021/12/30 09:14:08;;;;;;;23.17;14.98;;;;;;;;;;4725059;30;20053;-82
2021/12/30 09:16:54;;;;;;;33.25;18.33;;;;;;;;;;4718640;30;20057;-82
2021/12/30 09:19:39;;;;;;;28.52;17.67;;;;;;;;;;4719370;30;20045;-81
2021/12/30 09:22:25;;;;;;;23.95;15.05;;;;;;;;;;4718996;30;20049;-83
2021/12/30 09:25:22;;;;;;;19.83;11.85;;;;;;;;;;4718637;30;20374;-82
2021/12/30 09:28:36;;;;;;;26.85;13.35;;;;;;;;;;4711239;30;20041;-84
2021/12/30 09:31:52;;;;;;;13.70;8.18;;;;;;;;;;4721743;30;20049;-84
2021/12/30 09:34:38;;;;;;;20.33;12.38;;;;;;;;;;4695281;30;20053;-82
2021/12/30 09:37:27;;;;;;;29.38;17.60;;;;;;;;;;4718338;30;20053;-84
2021/12/30 09:40:20;;;;;;;38.88;21.08;;;;;;;;;;4713067;30;20056;-85
2021/12/30 09:43:11;;;;;;;24.08;14.10;;;;;;;;;;4699348;30;20041;-83
2021/12/30 09:45:56;;;;;;;21.75;14.15;;;;;;;;;;4710852;30;20390;-82
2021/12/30 09:48:43;;;;;;;34.67;21.85;;;;;;;;;;4707714;30;20410;-83
2021/12/30 09:51:29;;;;;;;26.10;15.57;;;;;;;;;;4718257;30;20044;-84
2021/12/30 09:54:14;;;;;;;33.95;16.98;;;;;;;;;;4710602;30;20065;-84
2021/12/30 09:57:00;;;;;;;16.00;9.57;;;;;;;;;;4711329;30;20041;-81
2021/12/30 09:59:45;;;;;;;29.63;16.70;;;;;;;;;;4717928;30;20053;-83
2021/12/30 10:02:31;;;;;;;28.52;17.92;;;;;;;;;;4705439;30;20041;-82
2021/12/30 10:05:20;;;;;;;16.98;10.98;;;;;;;;;;4717168;30;20057;-81
2021/12/30 10:08:42;;;;;;;35.75;22.13;;;;;;;;;;4717943;30;20458;-81
2021/12/30 10:11:27;;;;;;;25.60;14.10;;;;;;;;;;4702005;30;20041;-84
2021/12/30 10:14:28;;;;;;;27.02;14.38;;;;;;;;;;4710478;30;20045;-83
2021/12/30 10:17:24;;;;;;;27.15;14.35;;;;;;;;;;4700056;30;20466;-84
2021/12/30 10:20:24;;;;;;;43.38;21.88;;;;;;;;;;4717696;30;20048;-84
2021/12/30 10:23:14;;;;;;;24.58;14.40;;;;;;;;;;4701969;30;20041;-84
2021/12/30 10:26:00;;;;;;;37.38;18.20;;;;;;;;;;4706438;30;20053;-84
2021/12/30 10:28:49;;;;;;;30.98;18.42;;;;;;;;;;4701599;30;20046;-84
2021/12/30 10:31:36;;;;;;;37.33;21.00;;;;;;;;;;4715953;30;20046;-83
2021/12/30 10:34:22;;;;;;;32.63;17.23;;;;;;;;;;4720741;30;20049;-84
2021/12/30 10:37:22;;;;;;;31.55;17.42;;;;;;;;;;4728244;30;20061;-80
2021/12/30 10:40:36;;;;;;;31.58;16.73;;;;;;;;;;4716118;30;20053;-81
2021/12/30 10:43:37;;;;;;;32.15;16.17;;;;;;;;;;4713539;30;20049;-83
2021/12/30 10:46:28;;;;;;;32.92;18.02;;;;;;;;;;4718112;30;20049;-84
2021/12/30 10:49:21;;;;;;;30.25;18.25;;;;;;;;;;4717182;30;20053;-82
2021/12/30 10:52:07;;;;;;;23.83;14.82;;;;;;;;;;4717359;30;20053;-84
2021/12/30 10:54:52;;;;;;;28.15;15.98;;;;;;;;;;4707169;30;20045;-87
2021/12/30 10:57:37;;;;;;;23.50;12.05;;;;;;;;;;4718816;30;20052;-83
2021/12/30 11:00:30;;;;;;;22.00;14.30;;;;;;;;;;4713252;30;20041;-85
2021/12/30 11:03:27;;;;;;;15.43;9.60;;;;;;;;;;4713944;30;20466;-83
2021/12/30 11:06:17;;;;;;;16.63;9.60;;;;;;;;;;4723086;30;20053;-83
2021/12/30 11:09:04;;;;;;;10.65;6.53;;;;;;;;;;4721200;30;20493;-83
2021/12/30 11:11:53;;;;;;;24.02;13.40;;;;;;;;;;4722112;30;20033;-82
2021/12/30 11:14:38;;;;;;;23.92;11.27;;;;;;;;;;4714655;30;20386;-82
2021/12/30 11:17:33;;;;;;;20.77;11.23;;;;;;;;;;4722278;30;20053;-83
2021/12/30 11:20:20;;;;;;;22.23;11.73;;;;;;;;;;4709535;30;20049;-85
2021/12/30 11:23:06;;;;;;;15.10;6.88;;;;;;;;;;4708089;30;20439;-84
2021/12/30 11:25:51;;;;;;;25.08;12.57;;;;;;;;;;4691946;30;20057;-83
2021/12/30 11:28:37;;;;;;;30.77;15.85;;;;;;;;;;4716900;30;20041;-82
2021/12/30 11:31:23;;;;;;;35.85;16.95;;;;;;;;;;4727303;30;20049;-85
2021/12/30 11:34:08;;;;;;;26.80;13.60;;;;;;;;;;4720702;30;20049;-83
2021/12/30 11:36:54;;;;;;;22.88;11.35;;;;;;;;;;4721214;30;20053;-84
2021/12/30 11:39:44;;;;;;;23.77;14.48;;;;;;;;;;4720593;30;20478;-84
2021/12/30 11:42:38;;;;;;;27.63;13.90;;;;;;;;;;4719713;30;20045;-84
2021/12/30 11:45:31;;;;;;;42.65;20.52;;;;;;;;;;4719817;30;20064;-84
2021/12/30 11:48:25;;;;;;;20.27;11.15;;;;;;;;;;4720024;30;20057;-84
2021/12/30 11:51:15;;;;;;;17.13;9.75;;;;;;;;;;4721534;30;20057;-83
2021/12/30 11:54:39;;;;;;;24.15;13.82;;;;;;;;;;4729186;30;20056;-83
2021/12/30 11:57:32;;;;;;;21.20;13.25;;;;;;;;;;4720080;30;20053;-82
2021/12/30 12:00:46;;;;;;;42.65;18.80;;;;;;;;;;4720645;30;20498;-83
2021/12/30 12:03:38;;;;;;;19.35;10.18;;;;;;;;;;4706353;30;20052;-81
2021/12/30 12:06:36;;;;;;;14.73;7.40;;;;;;;;;;4725247;30;20049;-83
2021/12/30 12:09:22;;;;;;;15.13;9.48;;;;;;;;;;4720503;30;20469;-83
2021/12/30 12:12:11;;;;;;;26.45;13.68;;;;;;;;;;4719855;30;20049;-82
2021/12/30 12:14:59;;;;;;;21.80;14.30;;;;;;;;;;4720081;30;20045;-81
2021/12/30 12:17:45;;;;;;;25.17;13.93;;;;;;;;;;4720140;30;20048;-80
2021/12/30 12:20:34;;;;;;;18.33;10.45;;;;;;;;;;4724305;30;20049;-81
2021/12/30 12:23:36;;;;;;;22.77;11.85;;;;;;;;;;4719898;30;20474;-79
2021/12/30 12:26:23;;;;;;;19.77;12.25;;;;;;;;;;4725370;30;20053;-83
2021/12/30 12:29:29;;;;;;;24.67;13.80;;;;;;;;;;4712376;30;20048;-83
2021/12/30 12:32:17;;;;;;;26.80;15.75;;;;;;;;;;4720359;30;20394;-85
2021/12/30 12:35:18;;;;;;;42.17;20.70;;;;;;;;;;4719938;30;20049;-83
2021/12/30 12:38:09;;;;;;;35.60;16.67;;;;;;;;;;4714052;30;20057;-84
2021/12/30 12:40:54;;;;;;;30.98;18.65;;;;;;;;;;4713325;30;20061;-82
2021/12/30 12:43:39;;;;;;;18.75;12.23;;;;;;;;;;4725860;30;20386;-83
2021/12/30 12:46:46;;;;;;;20.02;10.82;;;;;;;;;;4719099;30;20481;-84
2021/12/30 12:49:34;;;;;;;21.17;10.40;;;;;;;;;;4720281;30;20470;-83
2021/12/30 12:52:46;;;;;;;21.38;11.13;;;;;;;;;;4711791;30;20048;-85
2021/12/30 12:55:36;;;;;;;15.52;8.73;;;;;;;;;;4718850;30;20098;-82
2021/12/30 12:58:24;;;;;;;23.80;12.82;;;;;;;;;;4718901;30;20056;-83
2021/12/30 13:01:14;;;;;;;24.27;12.85;;;;;;;;;;4725576;30;20052;-81
2021/12/30 13:04:03;;;;;;;27.42;14.52;;;;;;;;;;4725015;30;20053;-81
2021/12/30 13:06:48;;;;;;;31.23;15.93;;;;;;;;;;4719675;30;20045;-83
2021/12/30 13:09:34;;;;;;;24.75;13.57;;;;;;;;;;4722137;30;20189;-85
2021/12/30 13:12:19;;;;;;;24.30;12.38;;;;;;;;;;4721856;30;20037;-83
2021/12/30 13:15:16;;;;;;;40.22;23.17;;;;;;;;;;4732747;30;20068;-81
2021/12/30 13:18:02;;;;;;;43.97;19.83;;;;;;;;;;4731671;30;20386;-83
2021/12/30 13:20:48;;;;;;;24.92;13.57;;;;;;;;;;4722351;30;20057;-81
2021/12/30 13:23:34;;;;;;;29.67;17.05;;;;;;;;;;4720717;30;20040;-84
2021/12/30 13:26:19;;;;;;;20.90;12.82;;;;;;;;;;4719308;30;20049;-82
2021/12/30 13:29:06;;;;;;;27.73;15.65;;;;;;;;;;4719487;30;20056;-84
2021/12/30 13:32:17;;;;;;;25.90;15.30;;;;;;;;;;4719020;30;20052;-82
2021/12/30 13:35:09;;;;;;;35.40;18.48;;;;;;;;;;4718387;30;20505;-85
2021/12/30 13:38:15;;;;;;;34.53;16.67;;;;;;;;;;4724760;30;20053;-82
2021/12/30 13:41:00;;;;;;;27.92;16.30;;;;;;;;;;4724466;30;20057;-82
2021/12/30 13:43:46;;;;;;;37.38;22.55;;;;;;;;;;4717754;30;20049;-83
2021/12/30 13:46:31;;;;;;;42.60;23.20;;;;;;;;;;4718213;30;20049;-83
2021/12/30 13:49:17;;;;;;;43.58;22.00;;;;;;;;;;4719389;30;20386;-82
2021/12/30 13:52:02;;;;;;;38.72;21.50;;;;;;;;;;4723061;30;20049;-82
2021/12/30 13:55:10;;;;;;;45.00;24.13;;;;;;;;;;4718117;30;20045;-82
2021/12/30 13:58:13;;;;;;;48.92;28.05;;;;;;;;;;4718980;30;20394;-84
2021/12/30 14:01:05;;;;;;;43.60;26.55;;;;;;;;;;4718961;30;20065;-83
2021/12/30 14:04:09;;;;;;;27.58;16.60;;;;;;;;;;4712046;30;20053;-84
2021/12/30 14:06:58;;;;;;;35.08;19.48;;;;;;;;;;4723763;30;20049;-81
2021/12/30 14:09:54;;;;;;;42.25;22.17;;;;;;;;;;4720169;30;20413;-84
2021/12/30 14:12:58;;;;;;;47.13;24.65;;;;;;;;;;4719901;30;20052;-82
2021/12/30 14:15:43;;;;;;;40.67;21.20;;;;;;;;;;4718689;30;20045;-84
2021/12/30 14:18:32;;;;;;;34.03;20.45;;;;;;;;;;4718402;30;20045;-82
2021/12/30 14:21:20;;;;;;;47.47;20.05;;;;;;;;;;4720949;30;20044;-84
2021/12/30 14:24:13;;;;;;;61.10;28.38;;;;;;;;;;4722158;30;20053;-83
2021/12/30 14:27:11;;;;;;;46.83;25.58;;;;;;;;;;4709030;30;20041;-84
2021/12/30 14:29:55;;;;;;;39.13;21.58;;;;;;;;;;4724665;30;20041;-84
2021/12/30 14:32:41;;;;;;;37.70;23.27;;;;;;;;;;4725399;30;20045;-83
2021/12/30 14:35:27;;;;;;;57.88;28.40;;;;;;;;;;4711726;30;20494;-84
2021/12/30 14:38:27;;;;;;;49.47;26.80;;;;;;;;;;4725262;30;20390;-82
2021/12/30 14:41:12;;;;;;;56.90;32.35;;;;;;;;;;4705499;30;20057;-83
2021/12/30 14:44:09;;;;;;;56.72;29.98;;;;;;;;;;4725274;30;20049;-83
2021/12/30 14:47:00;;;;;;;59.22;28.85;;;;;;;;;;4723311;30;20061;-84
2021/12/30 14:50:03;;;;;;;49.08;26.10;;;;;;;;;;4726332;30;20057;-84
2021/12/30 14:53:00;;;;;;;91.63;43.10;;;;;;;;;;4726401;30;20041;-83
2021/12/30 14:55:47;;;;;;;131.32;56.88;;;;;;;;;;4725880;30;20061;-82
2021/12/30 14:58:31;;;;;;;80.97;39.10;;;;;;;;;;4726099;30;20040;-82
2021/12/30 15:01:17;;;;;;;116.70;49.33;;;;;;;;;;4731498;30;20049;-84
2021/12/30 15:04:03;;;;;;;79.40;41.30;;;;;;;;;;4731996;30;20086;-83
2021/12/30 15:06:48;;;;;;;101.18;50.00;;;;;;;;;;4725838;30;20049;-83
2021/12/30 15:09:34;;;;;;;346.48;151.25;;;;;;;;;;4718715;30;20053;-82
2021/12/30 15:12:22;;;;;;;291.42;134.88;;;;;;;;;;4725699;30;20057;-82
2021/12/30 15:15:10;;;;;;;207.57;100.00;;;;;;;;;;4714327;30;20398;-82
2021/12/30 15:17:56;;;;;;;106.53;48.47;;;;;;;;;;4701348;30;20049;-84
2021/12/30 15:20:41;;;;;;;83.57;40.22;;;;;;;;;;4721151;30;20064;-84
2021/12/30 15:23:27;;;;;;;130.02;60.60;;;;;;;;;;4719993;30;20045;-84
2021/12/30 15:26:14;;;;;;;141.40;68.15;;;;;;;;;;4715567;30;20048;-84
2021/12/30 15:29:00;;;;;;;158.40;74.00;;;;;;;;;;4720801;30;20045;-84
2021/12/30 15:31:46;;;;;;;126.93;65.70;;;;;;;;;;4720847;30;20497;-82
2021/12/30 15:34:31;;;;;;;126.60;59.90;;;;;;;;;;4726121;30;20045;-83
2021/12/30 15:37:17;;;;;;;151.35;80.13;;;;;;;;;;4720623;30;20049;-82
2021/12/30 15:40:03;;;;;;;174.45;100.18;;;;;;;;;;4725935;30;20057;-82
2021/12/30 15:42:49;;;;;;;182.73;111.68;;;;;;;;;;4725563;30;20044;-83
2021/12/30 15:45:35;;;;;;;200.20;105.07;;;;;;;;;;4719882;30;20064;-82
2021/12/30 15:48:20;;;;;;;148.30;76.82;;;;;;;;;;4723749;30;20061;-80
2021/12/30 15:51:06;;;;;;;157.75;85.35;;;;;;;;;;4711531;30;20049;-81
2021/12/30 15:53:51;;;;;;;164.88;90.43;;;;;;;;;;4725967;30;20056;-80
2021/12/30 15:56:37;;;;;;;158.63;85.20;;;;;;;;;;4722718;30;20393;-79
2021/12/30 15:59:24;;;;;;;147.07;73.32;;;;;;;;;;4722084;30;20049;-81
2021/12/30 16:02:09;;;;;;;153.23;75.20;;;;;;;;;;4724681;30;20481;-80
2021/12/30 16:04:55;;;;;;;142.70;70.20;;;;;;;;;;4725323;30;20057;-79
2021/12/30 16:08:03;;;;;;;160.75;77.10;;;;;;;;;;4723954;30;20045;-81
2021/12/30 16:10:51;;;;;;;185.95;93.95;;;;;;;;;;4710094;30;20045;-78
2021/12/30 16:13:44;;;;;;;190.05;104.57;;;;;;;;;;4701384;30;20037;-80
2021/12/30 16:16:35;;;;;;;182.00;102.53;;;;;;;;;;4700739;30;20151;-80
2021/12/30 16:19:23;;;;;;;173.40;94.03;;;;;;;;;;4698565;30;20045;-78
2021/12/30 16:22:11;;;;;;;183.75;94.93;;;;;;;;;;4696830;30;20057;-79
2021/12/30 16:25:00;;;;;;;171.45;92.20;;;;;;;;;;4704641;30;20482;-78
2021/12/30 16:27:46;;;;;;;163.05;88.15;;;;;;;;;;4711037;30;20053;-80
2021/12/30 16:30:31;;;;;;;171.15;93.50;;;;;;;;;;4714937;30;20386;-79
2021/12/30 16:33:17;;;;;;;193.38;103.55;;;;;;;;;;4707771;30;20045;-78